Time;durP1;ratioP1;P1;durP2;ratioP2;P2;SDS_P1;SDS_P2;PMS_P1;PMS_P2;Temp;Humidity;BMP_temperature;BMP_pressure;BME280_temperature;BME280_humidity;BME280_pressure;Samples;Min_cycle;Max_cycle;Signal;HPM_P1;HPM_P2
2023/04/30 00:02:00;;;;;;;;;;;;;;;27.62;30.89;97991.09;5115743;28;19919;-84
2023/04/30 00:04:26;;;;;;;;;;;;;;;27.56;31.08;97999.38;5093950;28;20347;-84
2023/04/30 00:06:52;;;;;;;;;;;;;;;27.38;31.53;98000.03;5108525;28;19920;-83
2023/04/30 00:09:18;;;;;;;;;;;;;;;27.52;31.51;97993.06;5115515;28;19972;-83
2023/04/30 00:11:44;;;;;;;;;;;;;;;27.26;31.38;97995.19;5094708;28;19926;-84
2023/04/30 00:14:10;;;;;;;;;;;;;;;27.35;31.13;97992.44;5106042;28;19926;-84
2023/04/30 00:16:36;;;;;;;;;;;;;;;27.39;31.23;98000.81;5114858;28;20375;-83
2023/04/30 00:19:02;;;;;;;;;;;;;;;26.87;32.20;97989.34;5112015;28;19919;-83
2023/04/30 00:21:29;;;;;;;;;;;;;;;26.98;31.98;97993.38;5105715;28;19926;-83
2023/04/30 00:23:55;;;;;;;;;;;;;;;27.13;31.69;98000.09;5114645;28;19920;-84
2023/04/30 00:26:21;;;;;;;;;;;;;;;27.17;31.70;97997.16;5115728;28;19920;-84
2023/04/30 00:28:47;;;;;;;;;;;;;;;27.09;31.29;97998.66;5113125;28;19924;-84
2023/04/30 00:31:13;;;;;;;;;;;;;;;27.22;31.74;97990.91;5115363;28;20387;-84
2023/04/30 00:33:39;;;;;;;;;;;;;;;27.33;31.27;97999.78;5109081;28;19920;-83
2023/04/30 00:36:05;;;;;;;;;;;;;;;27.42;30.91;97995.03;5103689;28;19965;-83
2023/04/30 00:38:31;;;;;;;;;;;;;;;27.35;31.62;97997.31;5108577;28;19920;-83
2023/04/30 00:40:57;;;;;;;;;;;;;;;27.23;31.73;97998.16;5112371;28;19920;-83
2023/04/30 00:43:23;;;;;;;;;;;;;;;27.40;31.23;97999.53;5108042;28;19927;-84
2023/04/30 00:45:49;;;;;;;;;;;;;;;27.35;31.71;98003.72;5110359;28;19927;-83
2023/04/30 00:48:15;;;;;;;;;;;;;;;27.25;31.30;97998.47;5108920;28;20298;-83
2023/04/30 00:50:43;;;;;;;;;;;;;;;27.22;31.88;98002.19;5102773;28;20268;-83
2023/04/30 00:53:10;;;;;;;;;;;;;;;27.36;31.11;97996.84;5107134;28;19919;-83
2023/04/30 00:55:37;;;;;;;;;;;;;;;27.53;31.39;98008.75;5114081;28;19939;-83
2023/04/30 00:58:04;;;;;;;;;;;;;;;27.38;31.31;98007.69;5110704;27;19931;-83
2023/04/30 01:00:30;;;;;;;;;;;;;;;27.19;31.63;98006.72;5109388;28;19935;-83
2023/04/30 01:02:56;;;;;;;;;;;;;;;26.98;31.19;98001.84;5111891;28;20279;-83
2023/04/30 01:05:22;;;;;;;;;;;;;;;26.94;31.78;98008.84;5107156;28;19915;-84
2023/04/30 01:07:49;;;;;;;;;;;;;;;26.74;32.24;98017.53;5092195;28;19927;-84
2023/04/30 01:10:15;;;;;;;;;;;;;;;26.86;31.98;98011.13;5110224;28;20371;-84
2023/04/30 01:12:45;;;;;;;;;;;;;;;26.44;32.40;98013.28;5105681;28;19922;-84
2023/04/30 01:15:33;;;;;;;;;;;;;;;25.88;33.08;98003.81;5112043;28;19964;-84
2023/04/30 01:18:08;;;;;;;;;;;;;;;25.78;34.41;98004.91;5110865;28;19916;-85
2023/04/30 01:20:37;;;;;;;;;;;;;;;25.97;33.79;98004.72;5111600;28;19921;-84
2023/04/30 01:23:11;;;;;;;;;;;;;;;26.34;33.22;98002.38;5108971;28;19920;-84
2023/04/30 01:25:52;;;;;;;;;;;;;;;26.59;32.67;97997.50;5105497;28;19999;-84
2023/04/30 01:28:19;;;;;;;;;;;;;;;26.57;32.86;98004.84;5111617;28;19923;-84
2023/04/30 01:30:46;;;;;;;;;;;;;;;26.98;31.39;98003.88;5111414;28;19926;-85
2023/04/30 01:33:12;;;;;;;;;;;;;;;26.94;31.91;98004.00;5111258;28;19926;-84
2023/04/30 01:35:44;;;;;;;;;;;;;;;26.72;32.05;98003.13;5109566;28;19919;-85
2023/04/30 01:38:21;;;;;;;;;;;;;;;25.78;33.55;98005.72;5108371;28;19920;-85
2023/04/30 01:41:00;;;;;;;;;;;;;;;25.84;33.97;98020.78;5104022;28;19928;-85
2023/04/30 01:43:32;;;;;;;;;;;;;;;26.04;34.08;98017.78;5112448;28;20002;-84
2023/04/30 01:46:17;;;;;;;;;;;;;;;26.40;33.06;98023.88;5105692;28;20294;-85
2023/04/30 01:48:53;;;;;;;;;;;;;;;26.56;32.77;98020.16;5112454;28;19920;-84
2023/04/30 01:51:23;;;;;;;;;;;;;;;26.42;32.76;98015.78;5113576;28;19984;-85
2023/04/30 01:53:52;;;;;;;;;;;;;;;26.53;32.39;98021.06;5110015;28;20386;-85
2023/04/30 01:56:26;;;;;;;;;;;;;;;26.37;32.66;98024.00;5106641;28;20333;-85
2023/04/30 01:58:52;;;;;;;;;;;;;;;26.24;32.97;98017.59;5101367;28;19935;-84
2023/04/30 02:01:29;;;;;;;;;;;;;;;26.01;32.70;98015.84;5108079;28;19920;-85
2023/04/30 02:03:55;;;;;;;;;;;;;;;26.39;33.31;98024.34;5113224;28;19920;-85
2023/04/30 02:06:27;;;;;;;;;;;;;;;26.32;33.34;98024.56;5102229;28;19965;-85
2023/04/30 02:08:53;;;;;;;;;;;;;;;26.00;33.13;98026.31;5113172;28;19920;-85
2023/04/30 02:11:19;;;;;;;;;;;;;;;25.74;33.13;98021.88;5107070;28;19919;-84
2023/04/30 02:13:45;;;;;;;;;;;;;;;25.88;33.04;98027.09;5113173;28;19919;-85
2023/04/30 02:16:11;;;;;;;;;;;;;;;25.96;32.96;98027.66;5105594;28;19959;-85
2023/04/30 02:18:37;;;;;;;;;;;;;;;25.92;33.11;98032.63;5111917;28;20440;-85
2023/04/30 02:21:03;;;;;;;;;;;;;;;26.42;32.15;98021.41;5113907;28;20046;-85
2023/04/30 02:23:29;;;;;;;;;;;;;;;26.02;33.47;98025.88;5111357;28;19926;-85
2023/04/30 02:25:55;;;;;;;;;;;;;;;26.04;32.98;98023.41;5108809;28;19924;-85
2023/04/30 02:28:21;;;;;;;;;;;;;;;26.38;32.02;98023.56;5112886;28;19924;-85
2023/04/30 02:30:47;;;;;;;;;;;;;;;26.30;32.25;98021.44;5111348;28;19915;-85
2023/04/30 02:33:13;;;;;;;;;;;;;;;26.23;32.50;98024.47;5110629;28;19928;-85
2023/04/30 02:35:40;;;;;;;;;;;;;;;25.69;33.65;98032.91;5111328;28;19920;-84
2023/04/30 02:38:06;;;;;;;;;;;;;;;26.07;32.33;98030.94;5114065;28;19922;-85
2023/04/30 02:40:32;;;;;;;;;;;;;;;26.07;32.84;98030.94;5104054;28;20010;-84
2023/04/30 02:43:00;;;;;;;;;;;;;;;26.49;32.02;98042.94;5113279;28;20365;-85
2023/04/30 02:45:26;;;;;;;;;;;;;;;26.23;33.23;98042.16;5109542;28;19924;-84
2023/04/30 02:47:52;;;;;;;;;;;;;;;25.97;32.36;98046.13;5112664;28;19920;-85
2023/04/30 02:50:18;;;;;;;;;;;;;;;26.34;32.34;98045.41;5111015;28;19926;-84
2023/04/30 02:52:45;;;;;;;;;;;;;;;26.33;32.00;98045.84;5112888;28;19919;-84
2023/04/30 02:55:11;;;;;;;;;;;;;;;26.37;32.07;98041.66;5110956;28;20367;-84
2023/04/30 02:57:37;;;;;;;;;;;;;;;26.18;32.23;98050.34;5108763;28;19946;-84
2023/04/30 03:00:04;;;;;;;;;;;;;;;25.96;32.70;98044.53;5109746;28;19930;-84
2023/04/30 03:02:30;;;;;;;;;;;;;;;25.78;32.60;98049.91;5112785;28;19959;-85
2023/04/30 03:04:56;;;;;;;;;;;;;;;25.78;33.44;98053.53;5112841;28;19965;-84
2023/04/30 03:07:22;;;;;;;;;;;;;;;26.07;32.85;98051.44;5110267;28;19919;-84
2023/04/30 03:09:48;;;;;;;;;;;;;;;25.84;32.94;98065.00;5108858;28;20444;-84
2023/04/30 03:12:14;;;;;;;;;;;;;;;25.66;32.67;98071.16;5114689;28;19928;-84
2023/04/30 03:14:40;;;;;;;;;;;;;;;25.81;32.53;98066.66;5113864;28;19920;-84
2023/04/30 03:17:06;;;;;;;;;;;;;;;25.39;33.19;98070.69;5114592;28;20409;-84
2023/04/30 03:19:32;;;;;;;;;;;;;;;25.61;33.37;98070.88;5110908;28;19915;-84
2023/04/30 03:21:58;;;;;;;;;;;;;;;25.82;32.69;98070.28;5105133;28;19927;-85
2023/04/30 03:24:24;;;;;;;;;;;;;;;25.49;32.91;98066.78;5107250;28;20406;-84
2023/04/30 03:26:50;;;;;;;;;;;;;;;25.35;34.14;98079.19;5111018;28;19923;-84
2023/04/30 03:29:17;;;;;;;;;;;;;;;24.95;34.73;98074.28;5114453;28;20329;-84
2023/04/30 03:31:43;;;;;;;;;;;;;;;25.52;33.25;98079.19;5111231;28;19930;-84
2023/04/30 03:34:09;;;;;;;;;;;;;;;25.62;32.90;98078.09;5112317;28;20323;-84
2023/04/30 03:36:35;;;;;;;;;;;;;;;25.97;32.67;98071.47;5113876;28;20319;-84
2023/04/30 03:39:01;;;;;;;;;;;;;;;26.15;31.86;98073.75;5109652;28;19919;-84
2023/04/30 03:41:27;;;;;;;;;;;;;;;26.36;31.58;98079.53;5113630;28;19916;-85
2023/04/30 03:43:53;;;;;;;;;;;;;;;26.63;31.14;98079.06;5107924;28;20053;-84
2023/04/30 03:46:19;;;;;;;;;;;;;;;26.30;31.91;98086.16;5112919;28;19931;-85
2023/04/30 03:48:45;;;;;;;;;;;;;;;26.31;31.49;98084.91;5115710;28;19920;-84
2023/04/30 03:51:11;;;;;;;;;;;;;;;26.04;31.92;98093.75;5115866;28;19916;-84
2023/04/30 03:53:37;;;;;;;;;;;;;;;26.24;31.41;98094.38;5114102;28;19931;-84
2023/04/30 03:56:03;;;;;;;;;;;;;;;25.95;32.38;98094.38;5113238;28;19916;-84
2023/04/30 03:58:30;;;;;;;;;;;;;;;26.18;31.40;98095.38;5114088;28;19930;-84
2023/04/30 04:00:56;;;;;;;;;;;;;;;26.11;32.33;98104.84;5108158;28;19933;-84
2023/04/30 04:03:22;;;;;;;;;;;;;;;26.46;31.54;98100.13;5103326;28;19946;-83
2023/04/30 04:05:48;;;;;;;;;;;;;;;26.54;30.84;98102.28;5109428;28;20022;-84
2023/04/30 04:08:14;;;;;;;;;;;;;;;26.59;30.89;98101.72;5107625;28;19966;-84
2023/04/30 04:10:40;;;;;;;;;;;;;;;26.62;31.05;98108.47;5116678;28;20391;-84
2023/04/30 04:13:06;;;;;;;;;;;;;;;26.55;31.53;98112.31;5115460;28;20367;-85
2023/04/30 04:15:32;;;;;;;;;;;;;;;26.50;31.61;98110.06;5108483;28;19923;-84
2023/04/30 04:17:58;;;;;;;;;;;;;;;26.61;31.29;98118.94;5114781;28;19923;-84
2023/04/30 04:20:26;;;;;;;;;;;;;;;26.55;31.16;98122.78;5115880;28;19920;-84
2023/04/30 04:22:52;;;;;;;;;;;;;;;26.37;31.45;98131.75;5103345;28;19963;-84
2023/04/30 04:25:19;;;;;;;;;;;;;;;26.53;31.16;98125.25;5103146;28;19935;-84
2023/04/30 04:27:45;;;;;;;;;;;;;;;26.58;31.38;98133.91;5114112;28;20015;-84
2023/04/30 04:30:12;;;;;;;;;;;;;;;26.02;32.32;98135.63;5105423;28;19948;-85
2023/04/30 04:32:45;;;;;;;;;;;;;;;25.85;32.75;98134.88;5114871;28;19951;-83
2023/04/30 04:35:12;;;;;;;;;;;;;;;26.15;32.10;98139.28;5109999;28;19915;-83
2023/04/30 04:37:38;;;;;;;;;;;;;;;26.30;30.98;98134.03;5114477;28;20388;-84
2023/04/30 04:40:04;;;;;;;;;;;;;;;26.10;31.78;98142.63;5102866;28;20029;-84
2023/04/30 04:42:31;;;;;;;;;;;;;;;25.52;32.66;98150.25;5115510;28;19922;-84
2023/04/30 04:44:57;;;;;;;;;;;;;;;25.82;32.92;98151.84;5115157;28;19916;-84
2023/04/30 04:47:23;;;;;;;;;;;;;;;24.79;35.64;98144.47;5114389;28;19922;-85
2023/04/30 04:49:49;;;;;;;;;;;;;;;25.39;33.14;98152.19;5107972;28;19974;-85
2023/04/30 04:52:15;;;;;;;;;;;;;;;25.17;34.33;98157.56;5110304;28;19955;-85
2023/04/30 04:54:41;;;;;;;;;;;;;;;25.66;33.29;98163.94;5108444;28;20287;-85
2023/04/30 04:57:07;;;;;;;;;;;;;;;25.62;32.74;98157.63;5107911;28;19943;-86
2023/04/30 04:59:33;;;;;;;;;;;;;;;25.48;32.81;98160.81;5109934;28;19926;-85
2023/04/30 05:01:59;;;;;;;;;;;;;;;24.99;35.38;98165.66;5102755;28;20334;-86
2023/04/30 05:04:26;;;;;;;;;;;;;;;25.38;33.32;98171.09;5103738;28;19924;-86
2023/04/30 05:06:53;;;;;;;;;;;;;;;25.20;34.00;98181.19;5113338;28;20395;-86
2023/04/30 05:09:19;;;;;;;;;;;;;;;25.53;33.16;98184.81;5101935;28;19920;-86
2023/04/30 05:11:47;;;;;;;;;;;;;;;24.54;34.90;98189.94;5103554;28;20472;-86
2023/04/30 05:14:14;;;;;;;;;;;;;;;25.00;33.57;98194.50;5109982;28;19965;-86
2023/04/30 05:16:40;;;;;;;;;;;;;;;23.63;37.12;98204.56;5113884;28;19924;-85
2023/04/30 05:19:08;;;;;;;;;;;;;;;22.61;39.28;98215.34;5115418;28;20043;-84
2023/04/30 05:21:34;;;;;;;;;;;;;;;21.05;42.17;98207.00;5108854;28;19968;-84
2023/04/30 05:24:02;;;;;;;;;;;;;;;20.61;43.76;98224.41;5113644;28;19934;-85
2023/04/30 05:26:28;;;;;;;;;;;;;;;20.54;45.08;98218.88;5102807;28;19943;-85
2023/04/30 05:28:54;;;;;;;;;;;;;;;20.70;45.27;98234.34;5109520;28;20391;-84
2023/04/30 05:31:20;;;;;;;;;;;;;;;20.48;44.13;98228.88;5098408;28;19916;-85
2023/04/30 05:33:46;;;;;;;;;;;;;;;20.30;44.77;98230.97;5112246;28;19919;-84
2023/04/30 05:36:12;;;;;;;;;;;;;;;21.02;42.66;98243.31;5108563;28;20014;-84
2023/04/30 05:38:39;;;;;;;;;;;;;;;22.30;39.32;98233.34;5104822;28;19927;-84
2023/04/30 05:41:05;;;;;;;;;;;;;;;21.89;40.57;98243.81;5103449;28;20467;-85
2023/04/30 05:43:31;;;;;;;;;;;;;;;22.60;39.24;98257.72;5111460;28;19920;-86
2023/04/30 05:45:57;;;;;;;;;;;;;;;22.37;38.26;98252.84;5103575;28;19923;-86
2023/04/30 05:48:23;;;;;;;;;;;;;;;24.02;35.38;98248.69;5106434;28;19920;-85
2023/04/30 05:50:49;;;;;;;;;;;;;;;23.05;37.37;98261.13;5108303;28;19920;-85
2023/04/30 05:53:15;;;;;;;;;;;;;;;21.43;41.27;98271.34;5108478;28;20367;-84
2023/04/30 05:55:41;;;;;;;;;;;;;;;22.20;39.10;98267.81;5108281;28;19928;-85
2023/04/30 05:58:07;;;;;;;;;;;;;;;21.75;40.88;98280.25;5112077;28;19923;-84
2023/04/30 06:00:34;;;;;;;;;;;;;;;21.58;40.74;98284.78;5104811;28;20325;-84
2023/04/30 06:03:00;;;;;;;;;;;;;;;21.08;41.43;98284.38;5113074;28;19915;-85
2023/04/30 06:05:26;;;;;;;;;;;;;;;21.06;41.44;98288.75;5103554;28;19934;-85
2023/04/30 06:07:52;;;;;;;;;;;;;;;21.32;40.06;98296.56;5108234;28;19926;-85
2023/04/30 06:10:18;;;;;;;;;;;;;;;21.60;39.11;98296.34;5106972;28;19920;-85
2023/04/30 06:12:45;;;;;;;;;;;;;;;22.38;37.00;98292.81;5100053;28;19923;-85
2023/04/30 06:15:11;;;;;;;;;;;;;;;22.47;36.00;98302.28;5099867;28;20449;-85
2023/04/30 06:17:37;;;;;;;;;;;;;;;23.02;36.21;98301.97;5095845;28;19920;-85
2023/04/30 06:20:05;;;;;;;;;;;;;;;22.91;34.42;98297.75;5096513;28;19920;-85
2023/04/30 06:22:32;;;;;;;;;;;;;;;22.49;36.72;98311.06;5105575;28;19942;-84
2023/04/30 06:24:58;;;;;;;;;;;;;;;23.14;34.65;98315.41;5098149;28;20290;-85
2023/04/30 06:27:26;;;;;;;;;;;;;;;22.02;35.82;98331.53;5100623;28;19942;-85
2023/04/30 06:29:53;;;;;;;;;;;;;;;21.67;35.79;98335.41;5094226;28;19971;-84
2023/04/30 06:32:19;;;;;;;;;;;;;;;21.43;37.13;98339.19;5098620;28;20345;-84
2023/04/30 06:34:45;;;;;;;;;;;;;;;21.96;33.97;98336.00;5095052;28;19927;-86
2023/04/30 06:37:11;;;;;;;;;;;;;;;20.67;39.86;98350.34;5102844;28;19976;-84
2023/04/30 06:39:37;;;;;;;;;;;;;;;22.18;33.39;98354.13;5100954;28;19923;-85
2023/04/30 06:42:03;;;;;;;;;;;;;;;21.70;35.59;98348.56;5103411;28;20366;-84
2023/04/30 06:44:29;;;;;;;;;;;;;;;23.19;31.58;98353.38;5104176;28;20397;-85
2023/04/30 06:46:55;;;;;;;;;;;;;;;22.57;33.12;98362.09;5101459;28;20405;-85
2023/04/30 06:49:21;;;;;;;;;;;;;;;23.65;30.29;98356.28;5094092;28;19926;-86
2023/04/30 06:51:47;;;;;;;;;;;;;;;24.31;30.04;98364.81;5110797;28;19928;-86
2023/04/30 06:54:13;;;;;;;;;;;;;;;24.71;28.67;98360.03;5112267;28;19939;-86
2023/04/30 06:56:40;;;;;;;;;;;;;;;24.95;28.60;98363.59;5108326;28;19920;-86
2023/04/30 06:59:06;;;;;;;;;;;;;;;25.06;27.95;98369.78;5108638;28;19920;-86
2023/04/30 07:01:32;;;;;;;;;;;;;;;24.70;29.04;98375.28;5085624;28;19927;-84
2023/04/30 07:03:58;;;;;;;;;;;;;;;24.96;28.87;98380.00;5103907;28;19928;-85
2023/04/30 07:06:24;;;;;;;;;;;;;;;24.97;29.10;98378.78;5105923;28;19959;-85
2023/04/30 07:08:50;;;;;;;;;;;;;;;24.85;29.40;98387.06;5109083;28;20419;-84
2023/04/30 07:11:16;;;;;;;;;;;;;;;24.91;28.97;98386.13;5111488;28;20018;-85
2023/04/30 07:13:43;;;;;;;;;;;;;;;24.17;30.52;98386.72;5085922;28;19915;-84
2023/04/30 07:16:09;;;;;;;;;;;;;;;23.95;31.53;98392.66;5108844;28;19970;-86
2023/04/30 07:18:36;;;;;;;;;;;;;;;24.34;30.10;98391.22;5108983;28;20333;-86
2023/04/30 07:21:03;;;;;;;;;;;;;;;24.33;30.32;98392.44;5112753;28;20375;-85
2023/04/30 07:23:29;;;;;;;;;;;;;;;24.21;30.58;98391.03;5110220;28;19928;-85
2023/04/30 07:25:55;;;;;;;;;;;;;;;25.01;30.59;98395.56;5113429;28;20451;-85
2023/04/30 07:28:21;;;;;;;;;;;;;;;25.50;29.08;98397.34;5106727;28;19924;-86
2023/04/30 07:30:47;;;;;;;;;;;;;;;25.88;29.00;98394.84;5110346;28;19920;-87
2023/04/30 07:33:13;;;;;;;;;;;;;;;25.75;28.82;98405.97;5107374;28;19961;-88
2023/04/30 07:35:39;;;;;;;;;;;;;;;25.78;29.08;98407.13;5107626;28;19920;-87
2023/04/30 07:38:05;;;;;;;;;;;;;;;25.86;29.82;98400.09;5083877;28;19922;-86
2023/04/30 07:40:31;;;;;;;;;;;;;;;25.13;29.48;98412.56;5090519;28;19924;-84
2023/04/30 07:42:57;;;;;;;;;;;;;;;25.51;30.21;98409.38;5106210;28;19935;-85
2023/04/30 07:45:23;;;;;;;;;;;;;;;25.77;28.63;98411.16;5106713;28;19920;-84
2023/04/30 07:47:49;;;;;;;;;;;;;;;25.07;30.18;98417.09;5099037;28;19924;-83
2023/04/30 07:50:16;;;;;;;;;;;;;;;25.09;30.17;98417.47;5108313;28;19928;-85
2023/04/30 07:52:42;;;;;;;;;;;;;;;24.50;30.40;98410.97;5103621;28;19920;-83
2023/04/30 07:55:08;;;;;;;;;;;;;;;24.94;30.29;98412.56;5103477;27;19989;-82
2023/04/30 07:57:34;;;;;;;;;;;;;;;25.27;30.10;98415.09;5107577;28;20283;-82
2023/04/30 08:00:00;;;;;;;;;;;;;;;25.76;28.81;98413.22;5104007;27;19920;-82
2023/04/30 08:02:26;;;;;;;;;;;;;;;25.57;28.65;98422.47;5103746;28;20060;-82
2023/04/30 08:04:52;;;;;;;;;;;;;;;25.32;29.32;98419.41;5107794;28;20011;-85
2023/04/30 08:07:19;;;;;;;;;;;;;;;25.23;29.66;98417.16;5103722;28;19927;-83
2023/04/30 08:09:45;;;;;;;;;;;;;;;25.03;31.19;98424.03;5088138;28;20028;-82
2023/04/30 08:12:12;;;;;;;;;;;;;;;25.33;30.51;98424.56;5099971;28;19920;-83
2023/04/30 08:14:38;;;;;;;;;;;;;;;25.62;29.26;98421.16;5102112;28;19920;-82
2023/04/30 08:17:04;;;;;;;;;;;;;;;25.82;28.89;98419.88;5105184;28;19928;-82
2023/04/30 08:19:30;;;;;;;;;;;;;;;25.65;30.36;98429.50;5110118;28;19968;-82
2023/04/30 08:21:56;;;;;;;;;;;;;;;25.97;30.26;98425.97;5105965;27;19920;-83
2023/04/30 08:24:22;;;;;;;;;;;;;;;26.38;29.54;98428.97;5105863;28;19923;-82
2023/04/30 08:26:48;;;;;;;;;;;;;;;26.97;29.58;98422.19;5098806;28;19950;-83
2023/04/30 08:29:14;;;;;;;;;;;;;;;26.53;28.53;98423.78;5106049;28;19923;-84
2023/04/30 08:31:40;;;;;;;;;;;;;;;26.00;31.38;98425.06;5109895;28;20002;-82
2023/04/30 08:34:06;;;;;;;;;;;;;;;25.72;29.29;98429.34;5102752;28;19927;-82
2023/04/30 08:36:32;;;;;;;;;;;;;;;25.73;31.40;98430.94;5109281;28;19927;-82
2023/04/30 08:39:00;;;;;;;;;;;;;;;25.92;29.54;98420.88;5104411;28;20391;-82
2023/04/30 08:41:30;;;;;;;;;;;;;;;26.31;31.63;98425.53;5098770;28;19927;-82
2023/04/30 08:44:00;;;;;;;;;;;;;;;26.16;30.32;98429.97;5098641;28;19965;-82
2023/04/30 08:46:27;;;;;;;;;;;;;;;25.97;32.11;98425.97;5108377;28;19919;-83
2023/04/30 08:48:54;;;;;;;;;;;;;;;26.09;28.85;98426.03;5098650;28;20380;-84
2023/04/30 08:51:20;;;;;;;;;;;;;;;26.02;27.86;98419.81;5097568;28;19923;-82
2023/04/30 08:53:49;;;;;;;;;;;;;;;26.47;28.63;98423.50;5099852;27;20375;-82
2023/04/30 08:56:15;;;;;;;;;;;;;;;26.33;28.03;98417.44;5098201;28;19931;-82
2023/04/30 08:58:42;;;;;;;;;;;;;;;26.69;30.00;98426.56;5101998;28;19931;-82
2023/04/30 09:01:08;;;;;;;;;;;;;;;26.99;26.04;98426.16;5103978;28;19927;-83
2023/04/30 09:03:35;;;;;;;;;;;;;;;26.72;28.70;98422.84;5105283;28;19967;-82
2023/04/30 09:06:01;;;;;;;;;;;;;;;27.04;27.75;98422.78;5102032;28;19920;-82
2023/04/30 09:08:40;;;;;;;;;;;;;;;25.54;32.95;98434.59;5101350;28;19972;-82
2023/04/30 09:11:20;;;;;;;;;;;;;;;26.44;26.97;98438.47;5101944;28;20319;-83
2023/04/30 09:13:46;;;;;;;;;;;;;;;26.90;26.77;98436.47;5108967;28;19945;-82
2023/04/30 09:16:12;;;;;;;;;;;;;;;26.09;28.78;98434.50;5110336;28;19920;-82
2023/04/30 09:18:38;;;;;;;;;;;;;;;26.46;28.41;98441.66;5109090;28;19920;-82
2023/04/30 09:21:07;;;;;;;;;;;;;;;25.41;37.59;98434.44;5112888;28;19928;-82
2023/04/30 09:23:33;;;;;;;;;;;;;;;27.02;27.54;98428.09;5103195;28;19989;-82
2023/04/30 09:25:59;;;;;;;;;;;;;;;25.84;34.29;98430.69;5112118;28;20329;-81
2023/04/30 09:28:27;;;;;;;;;;;;;;;25.04;31.31;98429.19;5108656;28;20030;-81
2023/04/30 09:30:56;;;;;;;;;;;;;;;25.94;36.21;98435.28;5110519;28;20431;-83
2023/04/30 09:33:22;;;;;;;;;;;;;;;26.74;26.78;98429.63;5107638;28;19924;-82
2023/04/30 09:35:48;;;;;;;;;;;;;;;26.98;26.99;98435.06;5101294;28;19919;-83
2023/04/30 09:38:44;;;;;;;;;;;;;;;27.38;26.48;98441.94;5108262;28;20299;-83
2023/04/30 09:41:27;;;;;;;;;;;;;;;27.67;25.88;98431.41;5089508;28;20356;-82
2023/04/30 09:43:54;;;;;;;;;;;;;;;28.17;29.38;98432.66;5108259;28;19926;-82
2023/04/30 09:46:20;;;;;;;;;;;;;;;28.23;27.19;98431.63;5107333;28;19916;-82
2023/04/30 09:48:54;;;;;;;;;;;;;;;27.91;26.56;98427.00;5105538;28;20387;-81
2023/04/30 09:51:20;;;;;;;;;;;;;;;27.24;25.02;98428.25;5113288;28;19962;-83
2023/04/30 09:53:46;;;;;;;;;;;;;;;25.87;28.73;98435.44;5109446;28;19966;-82
2023/04/30 09:56:14;;;;;;;;;;;;;;;24.98;30.13;98425.31;5111657;28;19916;-83
2023/04/30 09:58:43;;;;;;;;;;;;;;;25.04;34.99;98434.03;5107318;28;19956;-82
2023/04/30 10:01:10;;;;;;;;;;;;;;;25.21;34.74;98430.84;5103450;28;19927;-82
2023/04/30 10:03:38;;;;;;;;;;;;;;;26.07;31.25;98410.81;5109552;28;19926;-82
2023/04/30 10:06:04;;;;;;;;;;;;;;;27.42;27.27;98419.28;5112741;28;19923;-82
2023/04/30 10:08:35;;;;;;;;;;;;;;;27.43;26.48;98413.19;5108636;28;20003;-83
2023/04/30 10:11:04;;;;;;;;;;;;;;;27.30;27.74;98409.53;5111031;28;19927;-82
2023/04/30 10:13:34;;;;;;;;;;;;;;;26.51;30.22;98409.34;5110018;28;19924;-81
2023/04/30 10:16:06;;;;;;;;;;;;;;;27.67;26.63;98408.03;5113508;28;20282;-82
2023/04/30 10:18:37;;;;;;;;;;;;;;;28.43;24.55;98403.91;5107663;28;19946;-81
2023/04/30 10:21:09;;;;;;;;;;;;;;;27.86;28.73;98409.84;5106516;28;19920;-82
2023/04/30 10:23:43;;;;;;;;;;;;;;;27.88;25.29;98407.34;5103100;28;19951;-82
2023/04/30 10:26:11;;;;;;;;;;;;;;;27.23;25.16;98416.19;5103605;28;20029;-83
2023/04/30 10:28:38;;;;;;;;;;;;;;;28.37;24.65;98388.81;5113063;28;19969;-84
2023/04/30 10:31:04;;;;;;;;;;;;;;;29.54;25.08;98390.97;5109799;28;19971;-83
2023/04/30 10:33:41;;;;;;;;;;;;;;;28.89;30.45;98401.53;5106537;28;19928;-83
2023/04/30 10:36:12;;;;;;;;;;;;;;;28.30;26.68;98405.19;5102124;28;20379;-85
2023/04/30 10:38:38;;;;;;;;;;;;;;;28.44;25.46;98394.19;5108121;28;20309;-84
2023/04/30 10:41:05;;;;;;;;;;;;;;;28.73;24.50;98408.13;5083747;28;20429;-83
2023/04/30 10:43:32;;;;;;;;;;;;;;;28.02;29.09;98407.72;5109496;28;19920;-83
2023/04/30 10:45:58;;;;;;;;;;;;;;;28.11;26.05;98387.25;5112810;28;20028;-83
2023/04/30 10:48:25;;;;;;;;;;;;;;;28.85;28.46;98389.53;5097306;28;19939;-82
2023/04/30 10:50:54;;;;;;;;;;;;;;;28.73;21.17;98385.53;5093758;28;19924;-84
2023/04/30 10:53:21;;;;;;;;;;;;;;;28.29;26.65;98393.09;5095853;28;19934;-82
2023/04/30 10:55:56;;;;;;;;;;;;;;;28.21;24.20;98386.13;5098813;28;20018;-83
2023/04/30 10:58:24;;;;;;;;;;;;;;;27.57;23.54;98393.03;5100429;28;19924;-82
2023/04/30 11:00:58;;;;;;;;;;;;;;;27.47;29.18;98393.38;5093653;28;19926;-81
2023/04/30 11:03:25;;;;;;;;;;;;;;;28.70;25.89;98380.81;5087486;28;19935;-83
2023/04/30 11:05:51;;;;;;;;;;;;;;;28.30;25.17;98376.94;5094443;28;19927;-83
2023/04/30 11:08:19;;;;;;;;;;;;;;;29.10;23.13;98383.78;5095946;28;19959;-84
2023/04/30 11:10:59;;;;;;;;;;;;;;;27.23;26.40;98390.03;5093947;28;20260;-83
2023/04/30 11:13:26;;;;;;;;;;;;;;;27.36;24.67;98388.78;5103594;28;19916;-83
2023/04/30 11:15:53;;;;;;;;;;;;;;;28.63;26.76;98372.59;5097496;28;19924;-83
2023/04/30 11:18:19;;;;;;;;;;;;;;;27.86;29.87;98381.63;5112252;28;19927;-82
2023/04/30 11:20:50;;;;;;;;;;;;;;;28.14;32.07;98388.41;5101499;28;19929;-81
2023/04/30 11:23:21;;;;;;;;;;;;;;;27.91;25.28;98387.47;5105298;28;19935;-85
2023/04/30 11:25:47;;;;;;;;;;;;;;;27.55;29.37;98386.25;5102531;28;20384;-81
2023/04/30 11:28:17;;;;;;;;;;;;;;;26.21;31.81;98375.97;5113737;28;19930;-86
2023/04/30 11:31:02;;;;;;;;;;;;;;;25.89;34.17;98387.97;5102529;28;19930;-86
2023/04/30 11:33:29;;;;;;;;;;;;;;;27.65;23.32;98380.28;5104061;28;19919;-88
2023/04/30 11:35:56;;;;;;;;;;;;;;;28.41;25.51;98377.38;5088107;28;20050;-84
2023/04/30 11:38:25;;;;;;;;;;;;;;;29.52;23.98;98373.69;5112672;28;19919;-84
2023/04/30 11:40:53;;;;;;;;;;;;;;;27.51;31.11;98394.03;5115709;28;20379;-82
2023/04/30 11:43:22;;;;;;;;;;;;;;;27.13;30.08;98399.56;5115761;28;19919;-83
2023/04/30 11:46:07;;;;;;;;;;;;;;;28.33;25.66;98381.69;5107117;28;19926;-82
2023/04/30 11:48:34;;;;;;;;;;;;;;;29.78;23.74;98377.88;5114921;28;19926;-82
2023/04/30 11:51:19;;;;;;;;;;;;;;;29.93;26.18;98384.56;5105987;28;19920;-82
2023/04/30 11:53:46;;;;;;;;;;;;;;;29.11;21.86;98382.50;5112175;28;20356;-84
2023/04/30 11:56:12;;;;;;;;;;;;;;;27.26;27.10;98395.53;5112350;28;19973;-83
2023/04/30 11:58:39;;;;;;;;;;;;;;;28.62;25.30;98394.38;5112992;28;20395;-83
2023/04/30 12:01:09;;;;;;;;;;;;;;;28.26;24.57;98391.22;5095317;28;19923;-82
2023/04/30 12:03:42;;;;;;;;;;;;;;;28.50;26.09;98392.38;5114583;28;19973;-83
2023/04/30 12:06:09;;;;;;;;;;;;;;;28.93;23.07;98391.66;5115238;28;19919;-83
2023/04/30 12:08:35;;;;;;;;;;;;;;;28.57;26.30;98399.78;5110340;28;20401;-84
2023/04/30 12:11:01;;;;;;;;;;;;;;;27.30;31.71;98399.06;5116312;28;19984;-83
2023/04/30 12:13:29;;;;;;;;;;;;;;;27.84;24.31;98396.16;5095079;28;20513;-84
2023/04/30 12:15:56;;;;;;;;;;;;;;;28.14;26.03;98391.22;5113269;28;19927;-83
2023/04/30 12:18:22;;;;;;;;;;;;;;;27.93;28.94;98401.94;5105504;28;19920;-84
2023/04/30 12:20:48;;;;;;;;;;;;;;;27.61;27.40;98398.56;5113522;28;19919;-84
2023/04/30 12:23:14;;;;;;;;;;;;;;;28.12;23.71;98388.84;5107239;28;19927;-85
2023/04/30 12:25:44;;;;;;;;;;;;;;;28.77;25.42;98382.59;5101812;28;19916;-85
2023/04/30 12:28:10;;;;;;;;;;;;;;;29.03;24.51;98379.19;5108764;28;20319;-85
2023/04/30 12:30:37;;;;;;;;;;;;;;;29.62;23.79;98382.97;5115094;28;20275;-85
2023/04/30 12:33:03;;;;;;;;;;;;;;;29.32;24.41;98382.53;5112484;28;20003;-85
2023/04/30 12:35:32;;;;;;;;;;;;;;;29.39;25.22;98379.41;5109282;28;19927;-85
2023/04/30 12:38:01;;;;;;;;;;;;;;;27.45;31.64;98387.34;5102364;28;20329;-85
2023/04/30 12:40:27;;;;;;;;;;;;;;;27.20;24.57;98380.44;5109248;28;19927;-84
2023/04/30 12:43:00;;;;;;;;;;;;;;;27.21;29.20;98384.03;5108614;28;19926;-84
2023/04/30 12:45:45;;;;;;;;;;;;;;;26.91;33.66;98381.72;5112404;28;19916;-85
2023/04/30 12:48:12;;;;;;;;;;;;;;;26.63;25.15;98381.22;5096678;28;19965;-87
2023/04/30 12:50:38;;;;;;;;;;;;;;;27.24;27.48;98383.13;5114340;28;19920;-86